Terminal Aerodrome Forecast
Issued by NWS

Home | Current Version | Previous Version | Text Only | Print | Product List | Glossary On
Versions: 1 2 3 4 5 6 7 8 9 10 11 12 13 14 15 16
000
FTAK31 PANC 212336
TAFAHO
TAF
PAHO 212336Z 2200/2224 21005KT P6SM OVC045
     FM220300 06005KT 6SM -RA OVC030
     FM221500 20006KT 5SM -RA BR SCT015 BKN025=

USA.gov is the U.S. government's official web portal to all federal, state and local government web resources and services.